sensor_id;sensor_type;location;lat;lon;timestamp;P1;durP1;ratioP1;P2;durP2;ratioP2
32200;SDS011;18701;45.588;5.288;2023-06-10T00:00:38;9.07;;;3.90;;
32200;SDS011;18701;45.588;5.288;2023-06-10T00:03:06;8.93;;;3.95;;
32200;SDS011;18701;45.588;5.288;2023-06-10T00:05:32;6.85;;;5.45;;
32200;SDS011;18701;45.588;5.288;2023-06-10T00:07:59;7.78;;;4.22;;
32200;SDS011;18701;45.588;5.288;2023-06-10T00:10:31;11.43;;;4.82;;
32200;SDS011;18701;45.588;5.288;2023-06-10T00:12:58;9.75;;;5.70;;
32200;SDS011;18701;45.588;5.288;2023-06-10T00:15:24;9.40;;;4.65;;
32200;SDS011;18701;45.588;5.288;2023-06-10T00:17:50;17.40;;;4.75;;
32200;SDS011;18701;45.588;5.288;2023-06-10T00:20:17;11.23;;;4.45;;
32200;SDS011;18701;45.588;5.288;2023-06-10T00:22:43;9.40;;;5.18;;
32200;SDS011;18701;45.588;5.288;2023-06-10T00:25:10;9.25;;;4.25;;
32200;SDS011;18701;45.588;5.288;2023-06-10T00:27:36;12.60;;;4.43;;
32200;SDS011;18701;45.588;5.288;2023-06-10T00:30:02;11.25;;;4.10;;
32200;SDS011;18701;45.588;5.288;2023-06-10T00:32:31;9.77;;;4.05;;
32200;SDS011;18701;45.588;5.288;2023-06-10T00:34:57;12.40;;;3.80;;
32200;SDS011;18701;45.588;5.288;2023-06-10T00:37:23;7.15;;;3.80;;
32200;SDS011;18701;45.588;5.288;2023-06-10T00:39:48;7.43;;;3.75;;
32200;SDS011;18701;45.588;5.288;2023-06-10T00:42:14;9.90;;;3.80;;
32200;SDS011;18701;45.588;5.288;2023-06-10T00:44:40;12.52;;;3.72;;
32200;SDS011;18701;45.588;5.288;2023-06-10T00:47:05;12.68;;;3.72;;
32200;SDS011;18701;45.588;5.288;2023-06-10T00:49:32;6.45;;;4.15;;
32200;SDS011;18701;45.588;5.288;2023-06-10T00:51:58;7.95;;;3.45;;
32200;SDS011;18701;45.588;5.288;2023-06-10T00:54:24;5.60;;;3.65;;
32200;SDS011;18701;45.588;5.288;2023-06-10T00:56:50;3.85;;;2.95;;
32200;SDS011;18701;45.588;5.288;2023-06-10T00:59:17;8.88;;;2.97;;
32200;SDS011;18701;45.588;5.288;2023-06-10T01:01:43;6.05;;;2.85;;
32200;SDS011;18701;45.588;5.288;2023-06-10T01:04:12;9.48;;;2.45;;
32200;SDS011;18701;45.588;5.288;2023-06-10T01:12:01;6.00;;;2.55;;
32200;SDS011;18701;45.588;5.288;2023-06-10T01:14:37;5.95;;;3.13;;
32200;SDS011;18701;45.588;5.288;2023-06-10T01:17:09;7.03;;;2.85;;
32200;SDS011;18701;45.588;5.288;2023-06-10T01:19:36;9.13;;;2.30;;
32200;SDS011;18701;45.588;5.288;2023-06-10T01:22:02;5.05;;;2.25;;
32200;SDS011;18701;45.588;5.288;2023-06-10T01:24:28;7.28;;;2.03;;
32200;SDS011;18701;45.588;5.288;2023-06-10T01:26:57;9.48;;;1.88;;
32200;SDS011;18701;45.588;5.288;2023-06-10T01:29:41;6.90;;;2.47;;
32200;SDS011;18701;45.588;5.288;2023-06-10T01:32:21;5.30;;;2.00;;
32200;SDS011;18701;45.588;5.288;2023-06-10T01:34:54;4.35;;;2.00;;
32200;SDS011;18701;45.588;5.288;2023-06-10T01:37:21;4.13;;;1.67;;
32200;SDS011;18701;45.588;5.288;2023-06-10T01:39:50;5.07;;;2.30;;
32200;SDS011;18701;45.588;5.288;2023-06-10T01:42:17;4.22;;;2.00;;
32200;SDS011;18701;45.588;5.288;2023-06-10T01:44:43;2.65;;;1.42;;
32200;SDS011;18701;45.588;5.288;2023-06-10T01:47:09;10.73;;;2.33;;
32200;SDS011;18701;45.588;5.288;2023-06-10T01:49:34;5.20;;;2.67;;
32200;SDS011;18701;45.588;5.288;2023-06-10T01:52:00;7.82;;;2.47;;
32200;SDS011;18701;45.588;5.288;2023-06-10T01:54:25;9.15;;;2.42;;
32200;SDS011;18701;45.588;5.288;2023-06-10T01:56:51;3.97;;;1.88;;
32200;SDS011;18701;45.588;5.288;2023-06-10T01:59:17;9.13;;;2.50;;
32200;SDS011;18701;45.588;5.288;2023-06-10T02:01:42;7.93;;;2.17;;
32200;SDS011;18701;45.588;5.288;2023-06-10T02:04:08;4.25;;;2.25;;
32200;SDS011;18701;45.588;5.288;2023-06-10T02:06:33;7.45;;;2.08;;
32200;SDS011;18701;45.588;5.288;2023-06-10T02:09:00;4.13;;;1.83;;
32200;SDS011;18701;45.588;5.288;2023-06-10T02:11:26;5.10;;;1.85;;
32200;SDS011;18701;45.588;5.288;2023-06-10T02:13:51;8.63;;;2.15;;
32200;SDS011;18701;45.588;5.288;2023-06-10T02:16:17;8.68;;;1.75;;
32200;SDS011;18701;45.588;5.288;2023-06-10T02:18:43;9.43;;;2.28;;
32200;SDS011;18701;45.588;5.288;2023-06-10T02:21:09;6.75;;;1.98;;
32200;SDS011;18701;45.588;5.288;2023-06-10T02:23:35;7.30;;;2.20;;
32200;SDS011;18701;45.588;5.288;2023-06-10T02:26:01;4.15;;;1.98;;
32200;SDS011;18701;45.588;5.288;2023-06-10T02:28:27;4.82;;;2.28;;
32200;SDS011;18701;45.588;5.288;2023-06-10T02:30:53;6.90;;;2.08;;
32200;SDS011;18701;45.588;5.288;2023-06-10T02:33:18;4.28;;;2.00;;
32200;SDS011;18701;45.588;5.288;2023-06-10T02:35:44;8.63;;;1.70;;
32200;SDS011;18701;45.588;5.288;2023-06-10T02:38:10;5.22;;;2.17;;
32200;SDS011;18701;45.588;5.288;2023-06-10T02:40:36;7.80;;;2.63;;
32200;SDS011;18701;45.588;5.288;2023-06-10T02:43:01;4.75;;;2.00;;
32200;SDS011;18701;45.588;5.288;2023-06-10T02:45:27;7.57;;;1.98;;
32200;SDS011;18701;45.588;5.288;2023-06-10T02:47:52;9.10;;;2.35;;
32200;SDS011;18701;45.588;5.288;2023-06-10T02:50:18;5.75;;;2.30;;
32200;SDS011;18701;45.588;5.288;2023-06-10T02:52:44;8.38;;;2.15;;
32200;SDS011;18701;45.588;5.288;2023-06-10T02:55:09;7.35;;;1.85;;
32200;SDS011;18701;45.588;5.288;2023-06-10T02:57:35;6.85;;;1.52;;
32200;SDS011;18701;45.588;5.288;2023-06-10T03:00:01;4.00;;;2.00;;
32200;SDS011;18701;45.588;5.288;2023-06-10T03:02:29;6.90;;;2.10;;
32200;SDS011;18701;45.588;5.288;2023-06-10T03:04:56;5.70;;;2.20;;
32200;SDS011;18701;45.588;5.288;2023-06-10T03:07:22;6.22;;;2.45;;
32200;SDS011;18701;45.588;5.288;2023-06-10T03:09:48;4.75;;;2.28;;
32200;SDS011;18701;45.588;5.288;2023-06-10T03:12:15;4.25;;;1.98;;
32200;SDS011;18701;45.588;5.288;2023-06-10T03:14:41;4.60;;;2.28;;
32200;SDS011;18701;45.588;5.288;2023-06-10T03:17:06;7.85;;;1.90;;
32200;SDS011;18701;45.588;5.288;2023-06-10T03:19:33;6.20;;;2.20;;
32200;SDS011;18701;45.588;5.288;2023-06-10T03:22:09;7.78;;;2.60;;
32200;SDS011;18701;45.588;5.288;2023-06-10T03:24:36;6.45;;;2.05;;
32200;SDS011;18701;45.588;5.288;2023-06-10T03:27:05;8.30;;;1.95;;
32200;SDS011;18701;45.588;5.288;2023-06-10T03:29:35;11.30;;;2.38;;
32200;SDS011;18701;45.588;5.288;2023-06-10T03:32:01;6.63;;;2.28;;
32200;SDS011;18701;45.588;5.288;2023-06-10T03:34:27;4.57;;;1.77;;
32200;SDS011;18701;45.588;5.288;2023-06-10T03:36:53;4.97;;;2.03;;
32200;SDS011;18701;45.588;5.288;2023-06-10T03:39:18;5.13;;;1.90;;
32200;SDS011;18701;45.588;5.288;2023-06-10T03:41:44;7.65;;;2.05;;
32200;SDS011;18701;45.588;5.288;2023-06-10T03:44:10;3.40;;;1.73;;
32200;SDS011;18701;45.588;5.288;2023-06-10T03:46:36;7.25;;;1.30;;
32200;SDS011;18701;45.588;5.288;2023-06-10T03:49:01;6.55;;;1.63;;
32200;SDS011;18701;45.588;5.288;2023-06-10T03:51:28;4.25;;;1.10;;
32200;SDS011;18701;45.588;5.288;2023-06-10T03:53:54;3.65;;;1.80;;
32200;SDS011;18701;45.588;5.288;2023-06-10T03:56:20;7.90;;;1.67;;
32200;SDS011;18701;45.588;5.288;2023-06-10T03:58:45;4.63;;;1.60;;
32200;SDS011;18701;45.588;5.288;2023-06-10T04:01:11;5.85;;;2.13;;
32200;SDS011;18701;45.588;5.288;2023-06-10T04:03:38;4.50;;;2.08;;
32200;SDS011;18701;45.588;5.288;2023-06-10T04:06:04;3.35;;;1.77;;
32200;SDS011;18701;45.588;5.288;2023-06-10T04:08:30;6.40;;;1.88;;
32200;SDS011;18701;45.588;5.288;2023-06-10T04:10:57;10.27;;;2.20;;
32200;SDS011;18701;45.588;5.288;2023-06-10T04:13:23;5.18;;;1.67;;
32200;SDS011;18701;45.588;5.288;2023-06-10T04:15:49;8.88;;;1.40;;
32200;SDS011;18701;45.588;5.288;2023-06-10T04:18:15;5.82;;;1.65;;
32200;SDS011;18701;45.588;5.288;2023-06-10T04:20:40;6.32;;;1.38;;
32200;SDS011;18701;45.588;5.288;2023-06-10T04:23:06;3.90;;;0.85;;
32200;SDS011;18701;45.588;5.288;2023-06-10T04:25:32;4.43;;;1.25;;
32200;SDS011;18701;45.588;5.288;2023-06-10T04:27:58;3.88;;;0.90;;
32200;SDS011;18701;45.588;5.288;2023-06-10T04:30:23;3.13;;;1.75;;
32200;SDS011;18701;45.588;5.288;2023-06-10T04:32:49;3.65;;;1.38;;
32200;SDS011;18701;45.588;5.288;2023-06-10T04:35:17;5.05;;;1.08;;
32200;SDS011;18701;45.588;5.288;2023-06-10T04:37:43;2.90;;;1.10;;
32200;SDS011;18701;45.588;5.288;2023-06-10T04:40:08;3.92;;;1.10;;
32200;SDS011;18701;45.588;5.288;2023-06-10T04:42:34;5.93;;;1.38;;
32200;SDS011;18701;45.588;5.288;2023-06-10T04:45:00;8.45;;;1.77;;
32200;SDS011;18701;45.588;5.288;2023-06-10T04:47:27;2.53;;;1.20;;
32200;SDS011;18701;45.588;5.288;2023-06-10T04:49:53;6.30;;;1.40;;
32200;SDS011;18701;45.588;5.288;2023-06-10T04:52:18;5.40;;;1.35;;
32200;SDS011;18701;45.588;5.288;2023-06-10T04:54:44;8.60;;;1.92;;
32200;SDS011;18701;45.588;5.288;2023-06-10T04:57:10;2.03;;;1.13;;
32200;SDS011;18701;45.588;5.288;2023-06-10T04:59:36;6.05;;;1.48;;
32200;SDS011;18701;45.588;5.288;2023-06-10T05:02:03;4.28;;;1.67;;
32200;SDS011;18701;45.588;5.288;2023-06-10T05:04:30;5.95;;;1.70;;
32200;SDS011;18701;45.588;5.288;2023-06-10T05:06:55;4.35;;;1.70;;
32200;SDS011;18701;45.588;5.288;2023-06-10T05:09:21;4.43;;;1.60;;
32200;SDS011;18701;45.588;5.288;2023-06-10T05:11:46;4.32;;;1.70;;
32200;SDS011;18701;45.588;5.288;2023-06-10T05:14:12;4.03;;;1.50;;
32200;SDS011;18701;45.588;5.288;2023-06-10T05:16:38;3.97;;;1.42;;
32200;SDS011;18701;45.588;5.288;2023-06-10T05:19:04;6.10;;;2.05;;
32200;SDS011;18701;45.588;5.288;2023-06-10T05:21:29;4.70;;;1.90;;
32200;SDS011;18701;45.588;5.288;2023-06-10T05:23:55;7.05;;;1.80;;
32200;SDS011;18701;45.588;5.288;2023-06-10T05:26:21;4.85;;;2.00;;
32200;SDS011;18701;45.588;5.288;2023-06-10T05:28:47;5.75;;;1.98;;
32200;SDS011;18701;45.588;5.288;2023-06-10T05:31:12;6.95;;;1.70;;
32200;SDS011;18701;45.588;5.288;2023-06-10T05:33:38;5.70;;;2.13;;
32200;SDS011;18701;45.588;5.288;2023-06-10T05:36:05;4.13;;;2.45;;
32200;SDS011;18701;45.588;5.288;2023-06-10T05:38:30;3.80;;;2.17;;
32200;SDS011;18701;45.588;5.288;2023-06-10T05:40:56;5.70;;;2.00;;
32200;SDS011;18701;45.588;5.288;2023-06-10T05:43:23;6.32;;;2.80;;
32200;SDS011;18701;45.588;5.288;2023-06-10T05:45:49;9.18;;;2.85;;
32200;SDS011;18701;45.588;5.288;2023-06-10T05:48:14;4.80;;;2.08;;
32200;SDS011;18701;45.588;5.288;2023-06-10T05:50:40;4.90;;;1.75;;
32200;SDS011;18701;45.588;5.288;2023-06-10T05:53:07;7.70;;;2.13;;
32200;SDS011;18701;45.588;5.288;2023-06-10T05:55:39;7.00;;;1.85;;
32200;SDS011;18701;45.588;5.288;2023-06-10T05:58:10;8.95;;;2.25;;
32200;SDS011;18701;45.588;5.288;2023-06-10T06:00:39;8.00;;;2.70;;
32200;SDS011;18701;45.588;5.288;2023-06-10T06:03:06;5.65;;;1.85;;
32200;SDS011;18701;45.588;5.288;2023-06-10T06:05:33;7.10;;;3.10;;
32200;SDS011;18701;45.588;5.288;2023-06-10T06:08:01;8.60;;;2.67;;
32200;SDS011;18701;45.588;5.288;2023-06-10T06:10:27;4.65;;;3.50;;
32200;SDS011;18701;45.588;5.288;2023-06-10T06:12:52;5.43;;;3.40;;
32200;SDS011;18701;45.588;5.288;2023-06-10T06:15:18;7.95;;;4.15;;
32200;SDS011;18701;45.588;5.288;2023-06-10T06:17:43;6.15;;;3.38;;
32200;SDS011;18701;45.588;5.288;2023-06-10T06:20:09;6.07;;;3.65;;
32200;SDS011;18701;45.588;5.288;2023-06-10T06:22:35;6.72;;;3.72;;
32200;SDS011;18701;45.588;5.288;2023-06-10T06:25:01;7.32;;;4.43;;
32200;SDS011;18701;45.588;5.288;2023-06-10T06:27:27;7.40;;;4.50;;
32200;SDS011;18701;45.588;5.288;2023-06-10T06:29:53;7.80;;;4.53;;
32200;SDS011;18701;45.588;5.288;2023-06-10T06:32:19;8.05;;;4.68;;
32200;SDS011;18701;45.588;5.288;2023-06-10T06:34:45;5.25;;;4.13;;
32200;SDS011;18701;45.588;5.288;2023-06-10T06:37:11;13.32;;;5.03;;
32200;SDS011;18701;45.588;5.288;2023-06-10T06:39:36;6.93;;;4.18;;
32200;SDS011;18701;45.588;5.288;2023-06-10T06:42:02;8.02;;;4.57;;
32200;SDS011;18701;45.588;5.288;2023-06-10T06:44:28;5.82;;;3.08;;
32200;SDS011;18701;45.588;5.288;2023-06-10T06:46:53;9.15;;;3.55;;
32200;SDS011;18701;45.588;5.288;2023-06-10T06:49:19;7.43;;;3.35;;
32200;SDS011;18701;45.588;5.288;2023-06-10T06:51:44;6.22;;;3.22;;
32200;SDS011;18701;45.588;5.288;2023-06-10T06:54:10;5.68;;;3.80;;
32200;SDS011;18701;45.588;5.288;2023-06-10T06:56:37;5.93;;;3.17;;
32200;SDS011;18701;45.588;5.288;2023-06-10T06:59:03;7.97;;;2.50;;
32200;SDS011;18701;45.588;5.288;2023-06-10T07:01:29;5.47;;;2.70;;
32200;SDS011;18701;45.588;5.288;2023-06-10T07:03:55;5.28;;;2.13;;
32200;SDS011;18701;45.588;5.288;2023-06-10T07:06:20;3.65;;;2.50;;
32200;SDS011;18701;45.588;5.288;2023-06-10T07:08:46;10.30;;;3.30;;
32200;SDS011;18701;45.588;5.288;2023-06-10T07:11:12;6.18;;;3.30;;
32200;SDS011;18701;45.588;5.288;2023-06-10T07:13:37;5.00;;;2.55;;
32200;SDS011;18701;45.588;5.288;2023-06-10T07:16:03;5.13;;;2.28;;
32200;SDS011;18701;45.588;5.288;2023-06-10T07:18:28;8.77;;;2.10;;
32200;SDS011;18701;45.588;5.288;2023-06-10T07:20:54;7.28;;;2.20;;
32200;SDS011;18701;45.588;5.288;2023-06-10T07:23:20;8.40;;;2.08;;
32200;SDS011;18701;45.588;5.288;2023-06-10T07:25:45;5.13;;;2.30;;
32200;SDS011;18701;45.588;5.288;2023-06-10T07:28:11;4.95;;;1.98;;
32200;SDS011;18701;45.588;5.288;2023-06-10T07:30:39;9.65;;;2.00;;
32200;SDS011;18701;45.588;5.288;2023-06-10T07:33:05;9.75;;;4.63;;
32200;SDS011;18701;45.588;5.288;2023-06-10T07:35:32;6.10;;;2.15;;
32200;SDS011;18701;45.588;5.288;2023-06-10T07:37:58;5.93;;;2.22;;
32200;SDS011;18701;45.588;5.288;2023-06-10T07:40:23;5.53;;;1.88;;
32200;SDS011;18701;45.588;5.288;2023-06-10T07:42:50;4.20;;;2.20;;
32200;SDS011;18701;45.588;5.288;2023-06-10T07:45:15;6.47;;;1.90;;
32200;SDS011;18701;45.588;5.288;2023-06-10T07:47:42;6.80;;;2.13;;
32200;SDS011;18701;45.588;5.288;2023-06-10T07:50:08;2.60;;;1.13;;
32200;SDS011;18701;45.588;5.288;2023-06-10T07:52:34;5.07;;;1.95;;
32200;SDS011;18701;45.588;5.288;2023-06-10T07:55:00;5.65;;;1.90;;
32200;SDS011;18701;45.588;5.288;2023-06-10T07:57:25;5.82;;;1.63;;
32200;SDS011;18701;45.588;5.288;2023-06-10T07:59:51;6.80;;;2.10;;
32200;SDS011;18701;45.588;5.288;2023-06-10T08:02:17;5.88;;;3.25;;
32200;SDS011;18701;45.588;5.288;2023-06-10T08:04:42;6.85;;;1.50;;
32200;SDS011;18701;45.588;5.288;2023-06-10T08:07:08;7.05;;;1.80;;
32200;SDS011;18701;45.588;5.288;2023-06-10T08:09:33;5.22;;;1.90;;
32200;SDS011;18701;45.588;5.288;2023-06-10T08:11:59;6.88;;;1.40;;
32200;SDS011;18701;45.588;5.288;2023-06-10T08:14:25;4.32;;;1.48;;
32200;SDS011;18701;45.588;5.288;2023-06-10T08:16:51;5.82;;;1.40;;
32200;SDS011;18701;45.588;5.288;2023-06-10T08:19:17;8.35;;;3.05;;
32200;SDS011;18701;45.588;5.288;2023-06-10T08:21:42;4.53;;;2.30;;
32200;SDS011;18701;45.588;5.288;2023-06-10T08:24:08;6.32;;;1.40;;
32200;SDS011;18701;45.588;5.288;2023-06-10T08:26:34;3.63;;;1.40;;
32200;SDS011;18701;45.588;5.288;2023-06-10T08:29:00;8.52;;;1.80;;
32200;SDS011;18701;45.588;5.288;2023-06-10T08:31:25;3.13;;;1.45;;
32200;SDS011;18701;45.588;5.288;2023-06-10T08:33:51;7.40;;;1.90;;
32200;SDS011;18701;45.588;5.288;2023-06-10T08:36:17;4.43;;;1.70;;
32200;SDS011;18701;45.588;5.288;2023-06-10T08:38:42;8.30;;;1.45;;
32200;SDS011;18701;45.588;5.288;2023-06-10T08:41:08;6.50;;;1.33;;
32200;SDS011;18701;45.588;5.288;2023-06-10T08:44:39;4.22;;;1.23;;
32200;SDS011;18701;45.588;5.288;2023-06-10T08:46:36;3.25;;;1.20;;
32200;SDS011;18701;45.588;5.288;2023-06-10T08:49:03;6.65;;;1.80;;
32200;SDS011;18701;45.588;5.288;2023-06-10T08:51:32;4.65;;;2.17;;
32200;SDS011;18701;45.588;5.288;2023-06-10T08:54:02;3.88;;;1.20;;
32200;SDS011;18701;45.588;5.288;2023-06-10T08:56:35;3.45;;;1.13;;
32200;SDS011;18701;45.588;5.288;2023-06-10T08:59:05;3.25;;;1.08;;
32200;SDS011;18701;45.588;5.288;2023-06-10T09:01:31;2.92;;;1.30;;
32200;SDS011;18701;45.588;5.288;2023-06-10T09:03:58;3.58;;;1.08;;
32200;SDS011;18701;45.588;5.288;2023-06-10T09:06:24;4.70;;;0.60;;
32200;SDS011;18701;45.588;5.288;2023-06-10T09:08:50;3.00;;;0.55;;
32200;SDS011;18701;45.588;5.288;2023-06-10T09:11:17;5.03;;;1.08;;
32200;SDS011;18701;45.588;5.288;2023-06-10T09:13:42;7.28;;;1.38;;
32200;SDS011;18701;45.588;5.288;2023-06-10T09:16:08;2.92;;;0.73;;
32200;SDS011;18701;45.588;5.288;2023-06-10T09:18:36;3.55;;;0.85;;
32200;SDS011;18701;45.588;5.288;2023-06-10T09:21:02;4.68;;;1.50;;
32200;SDS011;18701;45.588;5.288;2023-06-10T09:23:28;4.57;;;1.30;;
32200;SDS011;18701;45.588;5.288;2023-06-10T09:25:57;3.63;;;1.13;;
32200;SDS011;18701;45.588;5.288;2023-06-10T09:28:23;6.43;;;1.00;;
32200;SDS011;18701;45.588;5.288;2023-06-10T09:30:49;2.97;;;0.88;;
32200;SDS011;18701;45.588;5.288;2023-06-10T09:33:15;8.32;;;1.30;;
32200;SDS011;18701;45.588;5.288;2023-06-10T09:35:48;1.90;;;0.77;;
32200;SDS011;18701;45.588;5.288;2023-06-10T09:38:15;4.78;;;1.33;;
32200;SDS011;18701;45.588;5.288;2023-06-10T09:40:51;2.65;;;0.88;;
32200;SDS011;18701;45.588;5.288;2023-06-10T09:43:18;3.13;;;1.30;;
32200;SDS011;18701;45.588;5.288;2023-06-10T09:45:47;7.03;;;1.25;;
32200;SDS011;18701;45.588;5.288;2023-06-10T09:48:18;4.35;;;0.90;;
32200;SDS011;18701;45.588;5.288;2023-06-10T09:50:43;2.85;;;0.80;;
32200;SDS011;18701;45.588;5.288;2023-06-10T09:53:10;10.57;;;1.30;;
32200;SDS011;18701;45.588;5.288;2023-06-10T09:55:39;3.58;;;0.90;;
32200;SDS011;18701;45.588;5.288;2023-06-10T09:58:05;1.25;;;0.60;;
32200;SDS011;18701;45.588;5.288;2023-06-10T10:00:31;3.63;;;0.77;;
32200;SDS011;18701;45.588;5.288;2023-06-10T10:02:58;8.07;;;0.95;;
32200;SDS011;18701;45.588;5.288;2023-06-10T10:05:24;1.45;;;0.70;;
32200;SDS011;18701;45.588;5.288;2023-06-10T10:07:50;6.70;;;1.23;;
32200;SDS011;18701;45.588;5.288;2023-06-10T10:10:17;1.95;;;1.27;;
32200;SDS011;18701;45.588;5.288;2023-06-10T10:12:46;4.47;;;1.00;;
32200;SDS011;18701;45.588;5.288;2023-06-10T10:15:13;4.70;;;1.35;;
32200;SDS011;18701;45.588;5.288;2023-06-10T10:20:14;6.50;;;1.20;;
32200;SDS011;18701;45.588;5.288;2023-06-10T10:22:45;6.82;;;1.52;;
32200;SDS011;18701;45.588;5.288;2023-06-10T10:25:16;3.15;;;1.77;;
32200;SDS011;18701;45.588;5.288;2023-06-10T10:27:55;7.35;;;2.25;;
32200;SDS011;18701;45.588;5.288;2023-06-10T10:30:24;7.93;;;2.47;;
32200;SDS011;18701;45.588;5.288;2023-06-10T10:35:29;7.25;;;2.25;;
32200;SDS011;18701;45.588;5.288;2023-06-10T10:37:57;5.75;;;2.67;;
32200;SDS011;18701;45.588;5.288;2023-06-10T10:40:24;8.68;;;2.60;;
32200;SDS011;18701;45.588;5.288;2023-06-10T10:42:53;10.13;;;2.65;;
32200;SDS011;18701;45.588;5.288;2023-06-10T10:45:21;3.83;;;2.60;;
32200;SDS011;18701;45.588;5.288;2023-06-10T10:47:47;4.32;;;2.45;;
32200;SDS011;18701;45.588;5.288;2023-06-10T10:50:19;4.70;;;2.10;;
32200;SDS011;18701;45.588;5.288;2023-06-10T10:52:55;3.95;;;1.90;;
32200;SDS011;18701;45.588;5.288;2023-06-10T10:55:24;2.85;;;1.88;;
32200;SDS011;18701;45.588;5.288;2023-06-10T10:57:55;2.83;;;1.40;;
32200;SDS011;18701;45.588;5.288;2023-06-10T11:00:51;5.22;;;1.58;;
32200;SDS011;18701;45.588;5.288;2023-06-10T11:03:17;6.85;;;1.92;;
32200;SDS011;18701;45.588;5.288;2023-06-10T11:05:44;4.30;;;1.40;;
32200;SDS011;18701;45.588;5.288;2023-06-10T11:08:13;4.00;;;1.90;;
32200;SDS011;18701;45.588;5.288;2023-06-10T11:10:57;3.42;;;1.40;;
32200;SDS011;18701;45.588;5.288;2023-06-10T11:13:23;5.20;;;1.80;;
32200;SDS011;18701;45.588;5.288;2023-06-10T11:15:51;2.67;;;1.38;;
32200;SDS011;18701;45.588;5.288;2023-06-10T11:18:22;3.58;;;1.50;;
32200;SDS011;18701;45.588;5.288;2023-06-10T11:20:53;2.58;;;1.52;;
32200;SDS011;18701;45.588;5.288;2023-06-10T11:26:08;3.08;;;1.20;;
32200;SDS011;18701;45.588;5.288;2023-06-10T11:29:03;3.67;;;1.25;;
32200;SDS011;18701;45.588;5.288;2023-06-10T11:36:26;7.50;;;1.80;;
32200;SDS011;18701;45.588;5.288;2023-06-10T11:38:59;3.40;;;0.88;;
32200;SDS011;18701;45.588;5.288;2023-06-10T11:41:26;1.95;;;1.13;;
32200;SDS011;18701;45.588;5.288;2023-06-10T11:43:54;6.13;;;1.25;;
32200;SDS011;18701;45.588;5.288;2023-06-10T11:46:23;3.83;;;1.20;;
32200;SDS011;18701;45.588;5.288;2023-06-10T11:48:53;3.97;;;1.10;;
32200;SDS011;18701;45.588;5.288;2023-06-10T11:51:21;4.20;;;0.88;;
32200;SDS011;18701;45.588;5.288;2023-06-10T11:53:47;3.00;;;1.00;;
32200;SDS011;18701;45.588;5.288;2023-06-10T11:56:23;4.20;;;0.85;;
32200;SDS011;18701;45.588;5.288;2023-06-10T11:58:53;3.85;;;0.82;;
32200;SDS011;18701;45.588;5.288;2023-06-10T12:01:23;1.92;;;0.95;;
32200;SDS011;18701;45.588;5.288;2023-06-10T12:04:01;7.68;;;1.10;;
32200;SDS011;18701;45.588;5.288;2023-06-10T12:06:42;3.40;;;0.93;;
32200;SDS011;18701;45.588;5.288;2023-06-10T12:09:18;3.75;;;0.65;;
32200;SDS011;18701;45.588;5.288;2023-06-10T12:11:51;1.52;;;0.60;;
32200;SDS011;18701;45.588;5.288;2023-06-10T12:17:20;1.98;;;0.90;;
32200;SDS011;18701;45.588;5.288;2023-06-10T12:19:47;2.45;;;0.75;;
32200;SDS011;18701;45.588;5.288;2023-06-10T12:22:13;1.10;;;0.57;;
32200;SDS011;18701;45.588;5.288;2023-06-10T12:27:28;3.58;;;0.73;;
32200;SDS011;18701;45.588;5.288;2023-06-10T12:29:55;5.22;;;1.05;;
32200;SDS011;18701;45.588;5.288;2023-06-10T12:32:34;1.73;;;0.57;;
32200;SDS011;18701;45.588;5.288;2023-06-10T12:35:08;5.03;;;1.00;;
32200;SDS011;18701;45.588;5.288;2023-06-10T12:37:35;2.95;;;1.15;;
32200;SDS011;18701;45.588;5.288;2023-06-10T12:40:02;3.05;;;1.20;;
32200;SDS011;18701;45.588;5.288;2023-06-10T12:42:29;3.22;;;0.90;;
32200;SDS011;18701;45.588;5.288;2023-06-10T12:44:55;5.18;;;0.70;;
32200;SDS011;18701;45.588;5.288;2023-06-10T12:47:31;2.35;;;0.50;;
32200;SDS011;18701;45.588;5.288;2023-06-10T12:50:04;4.30;;;0.85;;
32200;SDS011;18701;45.588;5.288;2023-06-10T12:52:30;4.32;;;0.80;;
32200;SDS011;18701;45.588;5.288;2023-06-10T12:54:57;2.95;;;1.20;;
32200;SDS011;18701;45.588;5.288;2023-06-10T12:57:23;2.65;;;0.68;;
32200;SDS011;18701;45.588;5.288;2023-06-10T12:59:50;1.63;;;0.57;;
32200;SDS011;18701;45.588;5.288;2023-06-10T13:02:20;6.32;;;0.75;;
32200;SDS011;18701;45.588;5.288;2023-06-10T13:04:48;2.60;;;0.70;;
32200;SDS011;18701;45.588;5.288;2023-06-10T13:07:14;2.50;;;0.50;;
32200;SDS011;18701;45.588;5.288;2023-06-10T13:09:40;1.88;;;0.50;;
32200;SDS011;18701;45.588;5.288;2023-06-10T13:12:06;1.58;;;0.40;;
32200;SDS011;18701;45.588;5.288;2023-06-10T13:14:32;2.33;;;0.35;;
32200;SDS011;18701;45.588;5.288;2023-06-10T13:16:58;2.58;;;0.30;;
32200;SDS011;18701;45.588;5.288;2023-06-10T13:19:24;2.50;;;0.60;;
32200;SDS011;18701;45.588;5.288;2023-06-10T13:21:50;1.58;;;0.20;;
32200;SDS011;18701;45.588;5.288;2023-06-10T13:24:16;1.70;;;0.30;;
32200;SDS011;18701;45.588;5.288;2023-06-10T13:26:42;1.77;;;0.13;;
32200;SDS011;18701;45.588;5.288;2023-06-10T13:29:07;1.08;;;0.35;;
32200;SDS011;18701;45.588;5.288;2023-06-10T13:31:38;0.60;;;0.10;;
32200;SDS011;18701;45.588;5.288;2023-06-10T13:34:04;1.10;;;0.20;;
32200;SDS011;18701;45.588;5.288;2023-06-10T13:36:31;0.40;;;0.30;;
32200;SDS011;18701;45.588;5.288;2023-06-10T13:38:56;1.98;;;0.13;;
32200;SDS011;18701;45.588;5.288;2023-06-10T13:41:22;2.50;;;0.20;;
32200;SDS011;18701;45.588;5.288;2023-06-10T13:43:47;0.43;;;0.20;;
32200;SDS011;18701;45.588;5.288;2023-06-10T13:46:13;3.22;;;0.20;;
32200;SDS011;18701;45.588;5.288;2023-06-10T13:48:38;1.75;;;0.30;;
32200;SDS011;18701;45.588;5.288;2023-06-10T13:51:04;0.88;;;0.20;;
32200;SDS011;18701;45.588;5.288;2023-06-10T13:53:31;2.63;;;0.20;;
32200;SDS011;18701;45.588;5.288;2023-06-10T13:55:57;0.93;;;0.20;;
32200;SDS011;18701;45.588;5.288;2023-06-10T13:58:22;1.75;;;0.40;;
32200;SDS011;18701;45.588;5.288;2023-06-10T14:00:48;5.63;;;0.30;;
32200;SDS011;18701;45.588;5.288;2023-06-10T14:03:13;0.73;;;0.30;;
32200;SDS011;18701;45.588;5.288;2023-06-10T14:05:39;2.60;;;0.30;;
32200;SDS011;18701;45.588;5.288;2023-06-10T14:08:05;0.90;;;0.30;;
32200;SDS011;18701;45.588;5.288;2023-06-10T14:10:31;2.10;;;0.30;;
32200;SDS011;18701;45.588;5.288;2023-06-10T14:12:56;0.82;;;0.45;;
32200;SDS011;18701;45.588;5.288;2023-06-10T14:15:22;4.03;;;0.30;;
32200;SDS011;18701;45.588;5.288;2023-06-10T14:17:47;0.90;;;0.20;;
32200;SDS011;18701;45.588;5.288;2023-06-10T14:20:13;0.52;;;0.30;;
32200;SDS011;18701;45.588;5.288;2023-06-10T14:22:39;1.67;;;0.20;;
32200;SDS011;18701;45.588;5.288;2023-06-10T14:25:05;0.63;;;0.20;;
32200;SDS011;18701;45.588;5.288;2023-06-10T14:27:31;1.60;;;0.22;;
32200;SDS011;18701;45.588;5.288;2023-06-10T14:29:56;3.10;;;0.43;;
32200;SDS011;18701;45.588;5.288;2023-06-10T14:32:22;2.83;;;0.60;;
32200;SDS011;18701;45.588;5.288;2023-06-10T14:34:47;5.65;;;0.68;;
32200;SDS011;18701;45.588;5.288;2023-06-10T14:37:13;1.77;;;0.60;;
32200;SDS011;18701;45.588;5.288;2023-06-10T14:39:39;2.00;;;1.02;;
32200;SDS011;18701;45.588;5.288;2023-06-10T14:42:04;4.88;;;1.20;;
32200;SDS011;18701;45.588;5.288;2023-06-10T14:44:31;2.05;;;1.10;;
32200;SDS011;18701;45.588;5.288;2023-06-10T14:46:56;4.15;;;1.20;;
32200;SDS011;18701;45.588;5.288;2023-06-10T14:49:22;4.03;;;1.13;;
32200;SDS011;18701;45.588;5.288;2023-06-10T14:51:48;1.50;;;0.98;;
32200;SDS011;18701;45.588;5.288;2023-06-10T14:54:15;4.57;;;0.80;;
32200;SDS011;18701;45.588;5.288;2023-06-10T14:56:40;3.63;;;0.68;;
32200;SDS011;18701;45.588;5.288;2023-06-10T14:59:06;4.15;;;1.00;;
32200;SDS011;18701;45.588;5.288;2023-06-10T15:01:31;4.30;;;0.80;;
32200;SDS011;18701;45.588;5.288;2023-06-10T15:03:57;3.10;;;0.98;;
32200;SDS011;18701;45.588;5.288;2023-06-10T15:06:23;4.10;;;0.80;;
32200;SDS011;18701;45.588;5.288;2023-06-10T15:08:48;3.47;;;0.65;;
32200;SDS011;18701;45.588;5.288;2023-06-10T15:11:14;2.22;;;0.80;;